Rocky Hill, Mississippi
Current Conditions -  °F | °C
As of 10:35 AM on Monday 24 Nov 2014 (Local Time) from KSTF Reporting Station
Scattered Clouds Scattered Clouds  
Wind Chill: 57°   Ceiling: Unl
Heat Index: 57°   Visibility: NA
Dew Point: 43°   Wind: 6mph
Humidity: 59%   Direction: 310°NW
Pressure: 29.91"   Gusts: NA
Location:  33.4256°N, 88.8438°W
Report Text: KSTF 241635Z AUTO 31005KT SCT033 14/06 A2991 RMK AO2 PWINO
Loading
Personal Weather Stations






























Interactive Weather Map New forecast layout! Learn more

10-Day Weather Forecast

Advertisements
Track Severe Weather on mobile